sensor_id;sensor_type;location;lat;lon;timestamp;pressure;altitude;pressure_sealevel;temperature;humidity
6216;BME280;3141;49.234;9.326;2022-10-31T00:00:12;100133.66;;;13.11;92.71
6216;BME280;3141;49.234;9.326;2022-10-31T00:00:55;100142.13;;;13.15;92.30
6216;BME280;3141;49.234;9.326;2022-10-31T00:01:39;100144.78;;;13.15;92.15
6216;BME280;3141;49.234;9.326;2022-10-31T00:02:21;100143.94;;;13.14;91.72
6216;BME280;3141;49.234;9.326;2022-10-31T00:03:03;100132.97;;;13.09;92.01
6216;BME280;3141;49.234;9.326;2022-10-31T00:03:46;100137.25;;;13.02;92.12
6216;BME280;3141;49.234;9.326;2022-10-31T00:04:29;100141.19;;;12.98;91.97
6216;BME280;3141;49.234;9.326;2022-10-31T00:05:12;100136.94;;;13.05;92.17
6216;BME280;3141;49.234;9.326;2022-10-31T00:05:54;100134.22;;;12.97;92.04
6216;BME280;3141;49.234;9.326;2022-10-31T00:06:36;100134.34;;;12.88;91.92
6216;BME280;3141;49.234;9.326;2022-10-31T00:07:19;100136.34;;;12.86;92.71
6216;BME280;3141;49.234;9.326;2022-10-31T00:08:01;100141.75;;;12.76;92.98
6216;BME280;3141;49.234;9.326;2022-10-31T00:08:51;100134.63;;;12.76;93.28
6216;BME280;3141;49.234;9.326;2022-10-31T00:09:33;100139.44;;;12.73;93.25
6216;BME280;3141;49.234;9.326;2022-10-31T00:10:16;100131.16;;;12.76;93.38
6216;BME280;3141;49.234;9.326;2022-10-31T00:10:58;100133.44;;;12.71;93.32
6216;BME280;3141;49.234;9.326;2022-10-31T00:11:40;100134.47;;;12.78;93.19
6216;BME280;3141;49.234;9.326;2022-10-31T00:12:23;100138.09;;;12.77;93.18
6216;BME280;3141;49.234;9.326;2022-10-31T00:13:06;100133.47;;;12.79;93.50
6216;BME280;3141;49.234;9.326;2022-10-31T00:13:48;100133.47;;;12.79;92.62
6216;BME280;3141;49.234;9.326;2022-10-31T00:14:31;100139.94;;;12.76;92.77
6216;BME280;3141;49.234;9.326;2022-10-31T00:15:13;100139.78;;;12.78;92.45
6216;BME280;3141;49.234;9.326;2022-10-31T00:15:55;100140.13;;;12.83;92.15
6216;BME280;3141;49.234;9.326;2022-10-31T00:16:38;100137.16;;;12.86;92.12
6216;BME280;3141;49.234;9.326;2022-10-31T00:17:20;100141.50;;;12.87;92.05
6216;BME280;3141;49.234;9.326;2022-10-31T00:18:05;100137.66;;;12.90;92.60
6216;BME280;3141;49.234;9.326;2022-10-31T00:18:52;100138.69;;;12.97;91.64
6216;BME280;3141;49.234;9.326;2022-10-31T00:19:35;100139.88;;;12.94;91.25
6216;BME280;3141;49.234;9.326;2022-10-31T00:20:17;100132.38;;;12.90;91.12
6216;BME280;3141;49.234;9.326;2022-10-31T00:21:03;100131.91;;;12.94;90.86
6216;BME280;3141;49.234;9.326;2022-10-31T00:21:45;100132.03;;;12.93;90.85
6216;BME280;3141;49.234;9.326;2022-10-31T00:22:28;100133.53;;;12.87;91.02
6216;BME280;3141;49.234;9.326;2022-10-31T00:23:10;100131.66;;;12.79;91.28
6216;BME280;3141;49.234;9.326;2022-10-31T00:23:52;100132.25;;;12.65;92.09
6216;BME280;3141;49.234;9.326;2022-10-31T00:24:35;100136.59;;;12.66;92.29
6216;BME280;3141;49.234;9.326;2022-10-31T00:25:17;100135.38;;;12.61;92.58
6216;BME280;3141;49.234;9.326;2022-10-31T00:26:01;100132.56;;;12.62;93.06
6216;BME280;3141;49.234;9.326;2022-10-31T00:26:44;100131.72;;;12.62;92.84
6216;BME280;3141;49.234;9.326;2022-10-31T00:27:26;100125.13;;;12.66;93.08
6216;BME280;3141;49.234;9.326;2022-10-31T00:28:10;100130.78;;;12.71;92.73
6216;BME280;3141;49.234;9.326;2022-10-31T00:28:53;100128.66;;;12.74;92.59
6216;BME280;3141;49.234;9.326;2022-10-31T00:29:35;100130.81;;;12.79;92.24
6216;BME280;3141;49.234;9.326;2022-10-31T00:30:17;100129.50;;;12.75;92.42
6216;BME280;3141;49.234;9.326;2022-10-31T00:31:05;100131.97;;;12.76;92.13
6216;BME280;3141;49.234;9.326;2022-10-31T00:31:48;100126.19;;;12.81;92.26
6216;BME280;3141;49.234;9.326;2022-10-31T00:32:30;100132.69;;;12.87;91.77
6216;BME280;3141;49.234;9.326;2022-10-31T00:33:12;100131.22;;;12.92;91.44
6216;BME280;3141;49.234;9.326;2022-10-31T00:33:55;100126.88;;;12.91;91.02
6216;BME280;3141;49.234;9.326;2022-10-31T00:34:37;100129.53;;;12.91;90.44
6216;BME280;3141;49.234;9.326;2022-10-31T00:35:20;100134.50;;;12.86;91.07
6216;BME280;3141;49.234;9.326;2022-10-31T00:36:03;100125.84;;;12.76;91.23
6216;BME280;3141;49.234;9.326;2022-10-31T00:36:45;100133.78;;;12.68;91.44
6216;BME280;3141;49.234;9.326;2022-10-31T00:37:28;100127.44;;;12.61;91.94
6216;BME280;3141;49.234;9.326;2022-10-31T00:38:10;100126.06;;;12.57;92.30
6216;BME280;3141;49.234;9.326;2022-10-31T00:38:52;100123.41;;;12.57;92.46
6216;BME280;3141;49.234;9.326;2022-10-31T00:39:34;100129.91;;;12.62;92.18
6216;BME280;3141;49.234;9.326;2022-10-31T00:40:17;100128.25;;;12.61;92.50
6216;BME280;3141;49.234;9.326;2022-10-31T00:40:59;100129.41;;;12.59;92.67
6216;BME280;3141;49.234;9.326;2022-10-31T00:41:41;100127.75;;;12.58;92.21
6216;BME280;3141;49.234;9.326;2022-10-31T00:42:24;100129.06;;;12.62;92.25
6216;BME280;3141;49.234;9.326;2022-10-31T00:43:06;100129.41;;;12.59;92.76
6216;BME280;3141;49.234;9.326;2022-10-31T00:43:48;100125.28;;;12.64;91.82
6216;BME280;3141;49.234;9.326;2022-10-31T00:44:31;100127.44;;;12.61;91.48
6216;BME280;3141;49.234;9.326;2022-10-31T00:45:13;100127.75;;;12.58;91.93
6216;BME280;3141;49.234;9.326;2022-10-31T00:45:55;100128.41;;;12.60;92.09
6216;BME280;3141;49.234;9.326;2022-10-31T00:46:38;100131.06;;;12.60;92.24
6216;BME280;3141;49.234;9.326;2022-10-31T00:47:20;100126.91;;;12.57;91.94
6216;BME280;3141;49.234;9.326;2022-10-31T00:48:02;100129.91;;;12.62;91.65
6216;BME280;3141;49.234;9.326;2022-10-31T00:48:45;100127.78;;;12.66;91.60
6216;BME280;3141;49.234;9.326;2022-10-31T00:49:27;100129.91;;;12.62;91.15
6216;BME280;3141;49.234;9.326;2022-10-31T00:50:10;100137.34;;;12.59;92.04
6216;BME280;3141;49.234;9.326;2022-10-31T00:50:52;100131.69;;;12.54;92.07
6216;BME280;3141;49.234;9.326;2022-10-31T00:51:35;100134.19;;;12.55;92.48
6216;BME280;3141;49.234;9.326;2022-10-31T00:52:17;100129.56;;;12.57;92.35
6216;BME280;3141;49.234;9.326;2022-10-31T00:52:59;100125.88;;;12.50;92.62
6216;BME280;3141;49.234;9.326;2022-10-31T00:53:41;100125.19;;;12.48;92.95
6216;BME280;3141;49.234;9.326;2022-10-31T00:54:24;100135.63;;;12.50;93.42
6216;BME280;3141;49.234;9.326;2022-10-31T00:55:06;100128.03;;;12.55;93.27
6216;BME280;3141;49.234;9.326;2022-10-31T00:55:49;100128.19;;;12.53;92.59
6216;BME280;3141;49.234;9.326;2022-10-31T00:56:31;100133.66;;;12.52;92.40
6216;BME280;3141;49.234;9.326;2022-10-31T00:57:13;100131.34;;;12.49;92.84
6216;BME280;3141;49.234;9.326;2022-10-31T00:57:56;100132.31;;;12.48;92.77
6216;BME280;3141;49.234;9.326;2022-10-31T00:58:38;100132.31;;;12.48;92.34
6216;BME280;3141;49.234;9.326;2022-10-31T00:59:20;100131.69;;;12.54;92.41
6216;BME280;3141;49.234;9.326;2022-10-31T01:00:03;100130.41;;;12.58;92.52
6216;BME280;3141;49.234;9.326;2022-10-31T01:00:49;100131.06;;;12.60;91.72
6216;BME280;3141;49.234;9.326;2022-10-31T01:01:36;100130.25;;;12.59;91.43
6216;BME280;3141;49.234;9.326;2022-10-31T01:02:19;100132.06;;;12.59;91.62
6216;BME280;3141;49.234;9.326;2022-10-31T01:03:01;100132.72;;;12.61;91.40
6216;BME280;3141;49.234;9.326;2022-10-31T01:03:43;100131.06;;;12.60;91.60
6216;BME280;3141;49.234;9.326;2022-10-31T01:04:26;100132.22;;;12.57;91.10
6216;BME280;3141;49.234;9.326;2022-10-31T01:05:08;100128.38;;;12.52;91.11
6216;BME280;3141;49.234;9.326;2022-10-31T01:05:57;100129.38;;;12.51;91.25
6216;BME280;3141;49.234;9.326;2022-10-31T01:06:40;100123.41;;;12.57;91.49
6216;BME280;3141;49.234;9.326;2022-10-31T01:07:22;100127.22;;;12.54;90.89
6216;BME280;3141;49.234;9.326;2022-10-31T01:08:05;100123.78;;;12.62;91.00
6216;BME280;3141;49.234;9.326;2022-10-31T01:08:47;100125.97;;;12.66;90.49
6216;BME280;3141;49.234;9.326;2022-10-31T01:09:30;100124.31;;;12.73;90.26
6216;BME280;3141;49.234;9.326;2022-10-31T01:10:13;100117.19;;;12.74;89.97
6216;BME280;3141;49.234;9.326;2022-10-31T01:11:13;100123.69;;;12.71;89.51
6216;BME280;3141;49.234;9.326;2022-10-31T01:11:55;100123.88;;;12.78;89.31
6216;BME280;3141;49.234;9.326;2022-10-31T01:12:39;100121.66;;;12.73;88.35
6216;BME280;3141;49.234;9.326;2022-10-31T01:13:22;100134.13;;;12.73;88.49
6216;BME280;3141;49.234;9.326;2022-10-31T01:14:04;100133.44;;;12.71;89.01
6216;BME280;3141;49.234;9.326;2022-10-31T01:14:47;100127.28;;;12.70;89.20
6216;BME280;3141;49.234;9.326;2022-10-31T01:15:29;100128.50;;;12.76;88.74
6216;BME280;3141;49.234;9.326;2022-10-31T01:16:14;100127.50;;;12.77;88.78
6216;BME280;3141;49.234;9.326;2022-10-31T01:16:56;100126.19;;;12.81;88.81
6216;BME280;3141;49.234;9.326;2022-10-31T01:17:39;100125.88;;;12.84;88.78
6216;BME280;3141;49.234;9.326;2022-10-31T01:18:23;100133.69;;;12.86;88.85
6216;BME280;3141;49.234;9.326;2022-10-31T01:19:05;100136.19;;;12.87;89.05
6216;BME280;3141;49.234;9.326;2022-10-31T01:19:47;100131.84;;;12.86;89.00
6216;BME280;3141;49.234;9.326;2022-10-31T01:20:30;100130.03;;;12.87;88.64
6216;BME280;3141;49.234;9.326;2022-10-31T01:21:15;100124.38;;;12.82;89.08
6216;BME280;3141;49.234;9.326;2022-10-31T01:21:57;100132.50;;;12.80;89.27
6216;BME280;3141;49.234;9.326;2022-10-31T01:22:39;100136.34;;;12.86;89.38
6216;BME280;3141;49.234;9.326;2022-10-31T01:23:22;100124.88;;;12.85;89.39
6216;BME280;3141;49.234;9.326;2022-10-31T01:24:04;100124.06;;;12.85;89.46
6216;BME280;3141;49.234;9.326;2022-10-31T01:24:47;100125.50;;;12.79;89.51
6216;BME280;3141;49.234;9.326;2022-10-31T01:25:29;100122.50;;;12.74;89.72
6216;BME280;3141;49.234;9.326;2022-10-31T01:26:18;100117.53;;;12.71;90.18
6216;BME280;3141;49.234;9.326;2022-10-31T01:27:02;100115.88;;;12.70;90.71
6216;BME280;3141;49.234;9.326;2022-10-31T01:27:44;100126.09;;;12.65;90.74
6216;BME280;3141;49.234;9.326;2022-10-31T01:28:26;100123.44;;;12.65;91.18
6216;BME280;3141;49.234;9.326;2022-10-31T01:29:09;100120.78;;;12.65;90.92
6216;BME280;3141;49.234;9.326;2022-10-31T01:29:51;100121.63;;;12.65;90.98
6216;BME280;3141;49.234;9.326;2022-10-31T01:30:33;100119.31;;;12.62;91.04
6216;BME280;3141;49.234;9.326;2022-10-31T01:31:17;100119.31;;;12.62;91.02
6216;BME280;3141;49.234;9.326;2022-10-31T01:32:00;100120.78;;;12.65;91.30
6216;BME280;3141;49.234;9.326;2022-10-31T01:32:43;100118.66;;;12.68;90.97
6216;BME280;3141;49.234;9.326;2022-10-31T01:33:25;100119.50;;;12.69;90.74
6216;BME280;3141;49.234;9.326;2022-10-31T01:34:12;100118.66;;;12.68;91.11
6216;BME280;3141;49.234;9.326;2022-10-31T01:34:55;100121.81;;;12.64;91.21
6216;BME280;3141;49.234;9.326;2022-10-31T01:35:37;100116.50;;;12.64;91.07
6216;BME280;3141;49.234;9.326;2022-10-31T01:36:22;100124.28;;;12.65;91.28
6216;BME280;3141;49.234;9.326;2022-10-31T01:37:05;100128.28;;;12.69;90.88
6216;BME280;3141;49.234;9.326;2022-10-31T01:37:47;100127.94;;;12.64;90.32
6216;BME280;3141;49.234;9.326;2022-10-31T01:38:30;100124.09;;;12.59;90.87
6216;BME280;3141;49.234;9.326;2022-10-31T01:39:14;100127.75;;;12.58;91.15
6216;BME280;3141;49.234;9.326;2022-10-31T01:39:57;100130.53;;;12.56;91.28
6216;BME280;3141;49.234;9.326;2022-10-31T01:40:39;100128.75;;;12.65;91.34
6216;BME280;3141;49.234;9.326;2022-10-31T01:41:24;100125.47;;;12.63;91.05
6216;BME280;3141;49.234;9.326;2022-10-31T01:42:17;100122.63;;;12.64;90.74
6216;BME280;3141;49.234;9.326;2022-10-31T01:43:00;100128.75;;;12.65;90.78
6216;BME280;3141;49.234;9.326;2022-10-31T01:43:52;100124.47;;;12.72;90.47
6216;BME280;3141;49.234;9.326;2022-10-31T01:45:17;100125.97;;;12.66;89.91
6216;BME280;3141;49.234;9.326;2022-10-31T01:46:00;100119.50;;;12.69;89.95
6216;BME280;3141;49.234;9.326;2022-10-31T01:46:56;100125.47;;;12.63;89.86
6216;BME280;3141;49.234;9.326;2022-10-31T01:47:44;100125.13;;;12.66;89.78
6216;BME280;3141;49.234;9.326;2022-10-31T01:48:27;100133.13;;;12.74;89.56
6216;BME280;3141;49.234;9.326;2022-10-31T01:49:23;100125.00;;;12.75;89.30
6216;BME280;3141;49.234;9.326;2022-10-31T01:50:33;100127.50;;;12.77;89.11
6216;BME280;3141;49.234;9.326;2022-10-31T01:51:15;100115.06;;;12.77;89.02
6216;BME280;3141;49.234;9.326;2022-10-31T01:52:06;100116.75;;;12.78;88.78
6216;BME280;3141;49.234;9.326;2022-10-31T01:52:52;100119.53;;;12.77;89.00
6216;BME280;3141;49.234;9.326;2022-10-31T01:53:35;100116.88;;;12.77;89.09
6216;BME280;3141;49.234;9.326;2022-10-31T01:54:20;100120.78;;;12.65;89.39
6216;BME280;3141;49.234;9.326;2022-10-31T01:55:11;100117.16;;;12.58;90.14
6216;BME280;3141;49.234;9.326;2022-10-31T01:55:55;100115.97;;;12.60;91.05
6216;BME280;3141;49.234;9.326;2022-10-31T01:56:39;100118.47;;;12.62;90.63
6216;BME280;3141;49.234;9.326;2022-10-31T01:57:25;100115.47;;;12.57;91.36
6216;BME280;3141;49.234;9.326;2022-10-31T01:58:12;100114.84;;;12.63;91.44
6216;BME280;3141;49.234;9.326;2022-10-31T01:58:55;100115.63;;;12.55;91.27
6216;BME280;3141;49.234;9.326;2022-10-31T01:59:43;100115.66;;;12.63;91.37
6216;BME280;3141;49.234;9.326;2022-10-31T02:00:27;100113.88;;;12.72;91.05
6216;BME280;3141;49.234;9.326;2022-10-31T02:01:10;100118.03;;;12.74;90.31
6216;BME280;3141;49.234;9.326;2022-10-31T02:01:53;100115.22;;;12.76;90.00
6216;BME280;3141;49.234;9.326;2022-10-31T02:02:36;100124.19;;;12.75;89.31
6216;BME280;3141;49.234;9.326;2022-10-31T02:03:20;100119.84;;;12.74;89.27
6216;BME280;3141;49.234;9.326;2022-10-31T02:04:04;100117.16;;;12.66;89.65
6216;BME280;3141;49.234;9.326;2022-10-31T02:04:48;100115.50;;;12.65;90.01
6216;BME280;3141;49.234;9.326;2022-10-31T02:05:31;100126.59;;;12.60;89.77
6216;BME280;3141;49.234;9.326;2022-10-31T02:06:24;100121.78;;;12.56;89.93
6216;BME280;3141;49.234;9.326;2022-10-31T02:07:12;100130.59;;;12.64;89.59
6216;BME280;3141;49.234;9.326;2022-10-31T02:07:59;100133.06;;;12.58;90.18
6216;BME280;3141;49.234;9.326;2022-10-31T02:08:45;100131.28;;;12.66;89.90
6216;BME280;3141;49.234;9.326;2022-10-31T02:09:29;100126.16;;;12.73;89.63
6216;BME280;3141;49.234;9.326;2022-10-31T02:10:12;100125.00;;;12.75;89.40
6216;BME280;3141;49.234;9.326;2022-10-31T02:10:56;100122.66;;;12.72;89.80
6216;BME280;3141;49.234;9.326;2022-10-31T02:11:40;100132.44;;;12.72;89.10
6216;BME280;3141;49.234;9.326;2022-10-31T02:12:24;100131.63;;;12.71;89.10
6216;BME280;3141;49.234;9.326;2022-10-31T02:13:08;100134.28;;;12.71;88.69
6216;BME280;3141;49.234;9.326;2022-10-31T02:13:50;100126.00;;;12.74;88.92
6216;BME280;3141;49.234;9.326;2022-10-31T02:14:33;100125.47;;;12.71;89.23
6216;BME280;3141;49.234;9.326;2022-10-31T02:15:17;100124.28;;;12.65;89.08
6216;BME280;3141;49.234;9.326;2022-10-31T02:16:00;100127.44;;;12.61;89.46
6216;BME280;3141;49.234;9.326;2022-10-31T02:16:42;100122.28;;;12.59;89.88
6216;BME280;3141;49.234;9.326;2022-10-31T02:17:24;100119.94;;;12.56;89.69
6216;BME280;3141;49.234;9.326;2022-10-31T02:18:07;100115.09;;;12.52;89.93
6216;BME280;3141;49.234;9.326;2022-10-31T02:18:50;100111.78;;;12.50;90.31
6216;BME280;3141;49.234;9.326;2022-10-31T02:19:42;100122.06;;;12.53;90.52
6216;BME280;3141;49.234;9.326;2022-10-31T02:20:33;100123.56;;;12.55;90.27
6216;BME280;3141;49.234;9.326;2022-10-31T02:21:23;100122.47;;;12.66;89.66
6216;BME280;3141;49.234;9.326;2022-10-31T02:27:34;100125.13;;;12.66;89.30
6216;BME280;3141;49.234;9.326;2022-10-31T02:30:05;100128.47;;;12.68;89.39
6216;BME280;3141;49.234;9.326;2022-10-31T02:31:47;100128.56;;;12.58;89.68
6216;BME280;3141;49.234;9.326;2022-10-31T02:33:43;100114.91;;;12.45;90.63
6216;BME280;3141;49.234;9.326;2022-10-31T02:34:35;100114.91;;;12.45;91.34
6216;BME280;3141;49.234;9.326;2022-10-31T02:36:57;100126.91;;;12.57;89.88
6216;BME280;3141;49.234;9.326;2022-10-31T02:37:51;100126.06;;;12.57;89.78
6216;BME280;3141;49.234;9.326;2022-10-31T02:38:50;100129.56;;;12.57;89.74
6216;BME280;3141;49.234;9.326;2022-10-31T02:40:25;100124.09;;;12.59;89.02
6216;BME280;3141;49.234;9.326;2022-10-31T02:41:31;100133.53;;;12.61;88.94
6216;BME280;3141;49.234;9.326;2022-10-31T02:42:21;100126.59;;;12.60;89.01
6216;BME280;3141;49.234;9.326;2022-10-31T02:43:20;100125.09;;;12.58;89.01
6216;BME280;3141;49.234;9.326;2022-10-31T02:46:53;100122.78;;;12.37;90.11
6216;BME280;3141;49.234;9.326;2022-10-31T02:47:37;100122.94;;;12.36;90.24
6216;BME280;3141;49.234;9.326;2022-10-31T02:48:24;100124.31;;;12.40;90.36
6216;BME280;3141;49.234;9.326;2022-10-31T02:49:20;100126.81;;;12.41;90.16
6216;BME280;3141;49.234;9.326;2022-10-31T02:50:14;100131.22;;;12.33;90.44
6216;BME280;3141;49.234;9.326;2022-10-31T02:51:00;100126.97;;;12.40;90.38
6216;BME280;3141;49.234;9.326;2022-10-31T02:51:43;100125.69;;;12.44;89.57
6216;BME280;3141;49.234;9.326;2022-10-31T02:52:28;100119.38;;;12.45;89.48
6216;BME280;3141;49.234;9.326;2022-10-31T02:53:14;100127.69;;;12.50;89.08
6216;BME280;3141;49.234;9.326;2022-10-31T02:53:57;100130.97;;;12.44;89.26
6216;BME280;3141;49.234;9.326;2022-10-31T02:54:39;100129.63;;;12.40;89.26
6216;BME280;3141;49.234;9.326;2022-10-31T02:56:15;100122.59;;;12.31;89.45
6216;BME280;3141;49.234;9.326;2022-10-31T02:57:05;100118.59;;;12.27;90.07
6216;BME280;3141;49.234;9.326;2022-10-31T02:57:49;100118.53;;;12.19;90.44
6216;BME280;3141;49.234;9.326;2022-10-31T02:58:37;100123.16;;;12.17;90.22
6216;BME280;3141;49.234;9.326;2022-10-31T02:59:21;100118.16;;;12.14;90.75
6216;BME280;3141;49.234;9.326;2022-10-31T03:00:06;100118.50;;;12.11;91.27
6216;BME280;3141;49.234;9.326;2022-10-31T03:02:15;100117.94;;;12.25;90.35
6216;BME280;3141;49.234;9.326;2022-10-31T03:03:27;100118.59;;;12.27;90.08
6216;BME280;3141;49.234;9.326;2022-10-31T03:05:29;100120.56;;;12.25;90.19
6216;BME280;3141;49.234;9.326;2022-10-31T03:06:14;100118.38;;;12.20;90.50
6216;BME280;3141;49.234;9.326;2022-10-31T03:07:23;100115.88;;;12.19;90.68
6216;BME280;3141;49.234;9.326;2022-10-31T03:08:12;100112.72;;;12.15;90.23
6216;BME280;3141;49.234;9.326;2022-10-31T03:11:17;100112.88;;;12.14;90.88
6216;BME280;3141;49.234;9.326;2022-10-31T03:12:07;100120.47;;;12.09;90.79
6216;BME280;3141;49.234;9.326;2022-10-31T03:14:53;100118.50;;;12.36;89.21
6216;BME280;3141;49.234;9.326;2022-10-31T03:15:48;100120.31;;;12.36;88.36
6216;BME280;3141;49.234;9.326;2022-10-31T03:16:45;100118.50;;;12.36;88.56
6216;BME280;3141;49.234;9.326;2022-10-31T03:17:37;100119.56;;;12.26;88.61
6216;BME280;3141;49.234;9.326;2022-10-31T03:18:34;100124.88;;;12.26;88.38
6216;BME280;3141;49.234;9.326;2022-10-31T03:19:25;100119.38;;;12.19;88.42
6216;BME280;3141;49.234;9.326;2022-10-31T03:20:10;100117.94;;;12.25;88.92
6216;BME280;3141;49.234;9.326;2022-10-31T03:21:07;100122.72;;;12.21;88.85
6216;BME280;3141;49.234;9.326;2022-10-31T03:21:57;100126.84;;;12.24;88.89
6216;BME280;3141;49.234;9.326;2022-10-31T03:22:42;100120.88;;;12.22;89.03
6216;BME280;3141;49.234;9.326;2022-10-31T03:23:26;100117.03;;;12.16;89.22
6216;BME280;3141;49.234;9.326;2022-10-31T03:24:11;100122.63;;;12.13;89.57
6216;BME280;3141;49.234;9.326;2022-10-31T03:24:54;100115.69;;;12.12;89.17
6216;BME280;3141;49.234;9.326;2022-10-31T03:25:39;100126.44;;;12.11;89.61
6216;BME280;3141;49.234;9.326;2022-10-31T03:26:23;100124.75;;;12.10;89.55
6216;BME280;3141;49.234;9.326;2022-10-31T03:27:09;100115.16;;;12.09;89.50
6216;BME280;3141;49.234;9.326;2022-10-31T03:27:52;100118.81;;;12.08;89.30
6216;BME280;3141;49.234;9.326;2022-10-31T03:28:49;100113.19;;;12.11;89.25
6216;BME280;3141;49.234;9.326;2022-10-31T03:29:36;100118.16;;;12.14;89.77
6216;BME280;3141;49.234;9.326;2022-10-31T03:30:19;100122.63;;;12.13;89.86
6216;BME280;3141;49.234;9.326;2022-10-31T03:31:04;100127.72;;;12.07;90.63
6216;BME280;3141;49.234;9.326;2022-10-31T03:31:57;100125.03;;;11.99;90.88
6216;BME280;3141;49.234;9.326;2022-10-31T03:32:44;100126.84;;;11.98;91.28
6216;BME280;3141;49.234;9.326;2022-10-31T03:33:32;100120.16;;;11.94;91.44
6216;BME280;3141;49.234;9.326;2022-10-31T03:34:18;100119.19;;;11.95;91.42
6216;BME280;3141;49.234;9.326;2022-10-31T03:35:03;100125.78;;;11.91;91.41
6216;BME280;3141;49.234;9.326;2022-10-31T03:35:50;100128.00;;;11.96;90.88
6216;BME280;3141;49.234;9.326;2022-10-31T03:36:35;100125.63;;;11.93;91.13
6216;BME280;3141;49.234;9.326;2022-10-31T03:37:20;100127.75;;;11.89;91.01
6216;BME280;3141;49.234;9.326;2022-10-31T03:38:03;100130.75;;;11.94;90.69
6216;BME280;3141;49.234;9.326;2022-10-31T03:38:47;100129.28;;;11.92;90.52
6216;BME280;3141;49.234;9.326;2022-10-31T03:39:30;100135.78;;;11.97;90.59
6216;BME280;3141;49.234;9.326;2022-10-31T03:40:14;100130.25;;;11.91;90.59
6216;BME280;3141;49.234;9.326;2022-10-31T03:40:59;100133.41;;;11.94;90.47
6216;BME280;3141;49.234;9.326;2022-10-31T03:41:46;100128.13;;;11.94;90.77
6216;BME280;3141;49.234;9.326;2022-10-31T03:42:33;100130.91;;;11.93;90.21
6216;BME280;3141;49.234;9.326;2022-10-31T03:43:21;100130.31;;;11.99;90.37
6216;BME280;3141;49.234;9.326;2022-10-31T03:44:17;100135.09;;;11.95;89.97
6216;BME280;3141;49.234;9.326;2022-10-31T03:45:51;100132.13;;;11.98;89.73
6216;BME280;3141;49.234;9.326;2022-10-31T03:46:34;100130.00;;;12.02;89.65
6216;BME280;3141;49.234;9.326;2022-10-31T03:47:17;100132.66;;;12.02;89.64
6216;BME280;3141;49.234;9.326;2022-10-31T03:47:59;100136.59;;;11.98;89.48
6216;BME280;3141;49.234;9.326;2022-10-31T03:48:42;100132.91;;;11.91;89.40
6216;BME280;3141;49.234;9.326;2022-10-31T03:49:24;100137.22;;;11.92;89.67
6216;BME280;3141;49.234;9.326;2022-10-31T03:50:07;100133.88;;;11.90;89.92
6216;BME280;3141;49.234;9.326;2022-10-31T03:53:06;100133.03;;;11.89;89.30
6216;BME280;3141;49.234;9.326;2022-10-31T03:54:14;100125.19;;;11.80;89.31
6216;BME280;3141;49.234;9.326;2022-10-31T03:55:12;100128.81;;;11.79;89.74
6216;BME280;3141;49.234;9.326;2022-10-31T03:57:14;100121.34;;;11.74;90.04
6216;BME280;3141;49.234;9.326;2022-10-31T03:58:16;100124.34;;;11.79;89.52
6216;BME280;3141;49.234;9.326;2022-10-31T03:59:06;100128.38;;;11.83;89.10
6216;BME280;3141;49.234;9.326;2022-10-31T04:00:04;100121.53;;;11.81;89.39
6216;BME280;3141;49.234;9.326;2022-10-31T04:00:48;100125.34;;;11.78;89.39
6216;BME280;3141;49.234;9.326;2022-10-31T04:01:37;100121.84;;;11.78;89.13
6216;BME280;3141;49.234;9.326;2022-10-31T04:02:23;100132.28;;;11.79;89.26
6216;BME280;3141;49.234;9.326;2022-10-31T04:03:14;100120.84;;;11.79;89.89
6216;BME280;3141;49.234;9.326;2022-10-31T04:03:58;100129.44;;;11.73;89.67
6216;BME280;3141;49.234;9.326;2022-10-31T04:04:43;100122.47;;;11.72;89.52
6216;BME280;3141;49.234;9.326;2022-10-31T04:05:26;100121.34;;;11.74;89.65
6216;BME280;3141;49.234;9.326;2022-10-31T04:06:12;100115.19;;;11.74;90.03
6216;BME280;3141;49.234;9.326;2022-10-31T04:06:58;100124.50;;;11.78;89.42
6216;BME280;3141;49.234;9.326;2022-10-31T04:07:45;100124.88;;;11.83;89.54
6216;BME280;3141;49.234;9.326;2022-10-31T04:08:31;100119.28;;;11.86;89.09
6216;BME280;3141;49.234;9.326;2022-10-31T04:09:15;100123.59;;;11.87;89.10
6216;BME280;3141;49.234;9.326;2022-10-31T04:10:00;100121.78;;;11.87;88.73
6216;BME280;3141;49.234;9.326;2022-10-31T04:10:47;100121.78;;;11.87;88.58
6216;BME280;3141;49.234;9.326;2022-10-31T04:11:34;100122.59;;;11.88;88.81
6216;BME280;3141;49.234;9.326;2022-10-31T04:12:18;100118.66;;;11.92;88.73
6216;BME280;3141;49.234;9.326;2022-10-31T04:13:04;100122.44;;;11.89;88.16
6216;BME280;3141;49.234;9.326;2022-10-31T04:13:48;100127.63;;;11.91;87.88
6216;BME280;3141;49.234;9.326;2022-10-31T04:14:32;100124.88;;;11.83;87.87
6216;BME280;3141;49.234;9.326;2022-10-31T04:15:17;100121.84;;;11.78;88.13
6216;BME280;3141;49.234;9.326;2022-10-31T04:16:01;100125.19;;;11.80;88.69
6216;BME280;3141;49.234;9.326;2022-10-31T04:16:44;100125.34;;;11.78;88.81
6216;BME280;3141;49.234;9.326;2022-10-31T04:17:29;100123.22;;;11.82;88.29
6216;BME280;3141;49.234;9.326;2022-10-31T04:18:14;100122.53;;;11.80;88.77
6216;BME280;3141;49.234;9.326;2022-10-31T04:18:56;100114.66;;;11.70;89.43
6216;BME280;3141;49.234;9.326;2022-10-31T04:19:38;100120.72;;;11.80;89.10
6216;BME280;3141;49.234;9.326;2022-10-31T04:20:34;100119.28;;;11.86;88.77
6216;BME280;3141;49.234;9.326;2022-10-31T04:21:17;100112.69;;;11.90;88.51
6216;BME280;3141;49.234;9.326;2022-10-31T04:22:00;100107.22;;;11.91;88.12
6216;BME280;3141;49.234;9.326;2022-10-31T04:22:42;100112.00;;;11.88;88.16
6216;BME280;3141;49.234;9.326;2022-10-31T04:23:26;100114.81;;;11.86;88.29
6216;BME280;3141;49.234;9.326;2022-10-31T04:24:09;100111.56;;;11.75;88.40
6216;BME280;3141;49.234;9.326;2022-10-31T04:24:51;100105.97;;;11.78;88.50
6216;BME280;3141;49.234;9.326;2022-10-31T04:25:33;100112.63;;;11.82;88.45
6216;BME280;3141;49.234;9.326;2022-10-31T04:26:15;100103.69;;;11.83;88.41
6216;BME280;3141;49.234;9.326;2022-10-31T04:26:58;100111.19;;;11.87;88.36
6216;BME280;3141;49.234;9.326;2022-10-31T04:27:40;100110.66;;;11.84;88.55
6216;BME280;3141;49.234;9.326;2022-10-31T04:28:23;100098.69;;;11.80;88.82
6216;BME280;3141;49.234;9.326;2022-10-31T04:29:05;100103.00;;;11.81;88.86
6216;BME280;3141;49.234;9.326;2022-10-31T04:29:48;100097.88;;;11.79;88.55